Time;durP1;ratioP1;P1;durP2;ratioP2;P2;SDS_P1;SDS_P2;PMS_P1;PMS_P2;Temp;Humidity;BMP_temperature;BMP_pressure;BME280_temperature;BME280_humidity;BME280_pressure;Samples;Min_cycle;Max_cycle;Signal;HPM_P1;HPM_P2
2022/04/18 00:01:58;;;;;;;0.47;0.47;;;;;;;3.43;75.07;94275.97;5031232;28;20209;-74
2022/04/18 00:04:25;;;;;;;0.28;0.28;;;;;;;3.42;74.50;94271.72;5030958;28;20232;-74
2022/04/18 00:06:52;;;;;;;0.30;0.30;;;;;;;3.45;74.35;94264.97;5030966;28;20208;-76
2022/04/18 00:09:18;;;;;;;0.20;0.20;;;;;;;3.44;75.96;94272.22;5030812;28;20223;-75
2022/04/18 00:11:45;;;;;;;0.20;0.20;;;;;;;3.45;74.66;94265.78;5030960;28;20209;-75
2022/04/18 00:14:12;;;;;;;0.38;0.38;;;;;;;3.42;75.86;94258.31;5030992;28;20197;-72
2022/04/18 00:16:41;;;;;;;0.25;0.20;;;;;;;3.43;75.48;94267.94;5031153;28;20210;-74
2022/04/18 00:19:08;;;;;;;0.10;0.10;;;;;;;3.41;75.55;94258.66;5030846;28;20686;-74
2022/04/18 00:21:35;;;;;;;0.20;0.20;;;;;;;3.26;75.79;94273.06;5030727;28;20208;-75
2022/04/18 00:24:02;;;;;;;0.20;0.20;;;;;;;3.36;75.61;94264.88;5035852;28;20199;-75
2022/04/18 00:26:28;;;;;;;0.20;0.20;;;;;;;3.40;76.01;94257.84;5036302;28;20200;-75
2022/04/18 00:28:55;;;;;;;0.20;0.20;;;;;;;3.42;75.41;94255.66;5034453;28;20208;-73
2022/04/18 00:31:22;;;;;;;0.20;0.20;;;;;;;3.41;75.44;94254.09;5034254;28;20226;-75
2022/04/18 00:33:51;;;;;;;0.20;0.20;;;;;;;3.48;75.21;94243.78;5035145;28;20676;-75
2022/04/18 00:36:17;;;;;;;0.10;0.10;;;;;;;3.46;74.03;94254.00;5034747;28;20737;-75
2022/04/18 00:38:44;;;;;;;0.20;0.20;;;;;;;3.30;74.55;94257.97;5034208;28;20730;-74
2022/04/18 00:41:12;;;;;;;0.20;0.20;;;;;;;3.29;74.82;94253.72;5034843;28;20208;-75
2022/04/18 00:43:40;;;;;;;0.20;0.20;;;;;;;3.41;75.14;94251.41;5034136;28;20235;-74
2022/04/18 00:46:07;;;;;;;0.20;0.20;;;;;;;3.42;73.88;94247.63;5053240;28;20207;-75
2022/04/18 00:48:35;;;;;;;0.30;0.30;;;;;;;3.33;74.78;94246.69;5042175;28;20219;-76
2022/04/18 00:51:04;;;;;;;0.20;0.20;;;;;;;3.29;75.31;94242.22;5034836;28;20204;-74
2022/04/18 00:53:32;;;;;;;0.65;0.57;;;;;;;3.19;73.72;94241.28;5034611;28;20204;-75
2022/04/18 00:56:00;;;;;;;0.20;0.20;;;;;;;3.17;75.21;94251.47;5020285;28;20200;-73
2022/04/18 00:58:27;;;;;;;0.68;0.68;;;;;;;3.33;75.01;94252.06;5033757;28;20201;-75
2022/04/18 01:00:54;;;;;;;1.08;0.75;;;;;;;3.50;74.34;94236.25;5034141;28;20295;-74
2022/04/18 01:03:21;;;;;;;0.40;0.40;;;;;;;3.55;74.68;94246.88;5034518;28;20592;-73
2022/04/18 01:05:49;;;;;;;0.20;0.20;;;;;;;3.43;74.31;94238.50;5041319;28;20709;-74
2022/04/18 01:08:18;;;;;;;0.40;0.40;;;;;;;3.42;74.38;94226.19;5039942;28;20209;-74
2022/04/18 01:10:45;;;;;;;0.20;0.20;;;;;;;3.35;73.71;94230.34;5033538;28;20214;-75
2022/04/18 01:13:12;;;;;;;0.30;0.30;;;;;;;3.46;74.79;94240.59;5034385;28;20287;-75
2022/04/18 01:15:39;;;;;;;0.10;0.10;;;;;;;3.48;74.75;94233.06;5034237;28;20204;-74
2022/04/18 01:18:06;;;;;;;0.20;0.20;;;;;;;3.41;73.20;94234.56;5034151;28;20204;-73
2022/04/18 01:20:35;;;;;;;0.20;0.20;;;;;;;3.34;75.15;94237.59;5033677;28;20777;-74
2022/04/18 01:23:06;;;;;;;0.30;0.30;;;;;;;3.34;75.23;94232.22;5033643;28;20200;-75
2022/04/18 01:31:03;;;;;;;0.10;0.10;;;;;;;3.32;74.88;94231.72;5033550;28;20231;-74
2022/04/18 01:33:30;;;;;;;0.20;0.20;;;;;;;3.39;74.15;94224.13;5033887;28;20212;-75
2022/04/18 01:35:57;;;;;;;0.20;0.20;;;;;;;3.40;73.84;94216.91;5033533;28;20236;-75
2022/04/18 01:38:26;;;;;;;0.28;0.28;;;;;;;3.42;74.93;94212.03;5033650;28;20197;-74
2022/04/18 01:40:53;;;;;;;0.20;0.20;;;;;;;3.25;73.56;94201.06;5033436;28;20239;-75
2022/04/18 01:43:20;;;;;;;0.20;0.20;;;;;;;3.20;74.06;94194.72;5033596;28;20236;-74
2022/04/18 01:45:47;;;;;;;0.10;0.10;;;;;;;3.40;75.33;94204.31;5033418;28;20209;-74
2022/04/18 01:48:13;;;;;;;0.20;0.20;;;;;;;3.47;74.04;94201.25;5033725;28;20208;-75
2022/04/18 01:50:40;;;;;;;0.20;0.20;;;;;;;3.39;74.60;94196.56;5033386;28;20259;-74
2022/04/18 01:53:07;;;;;;;0.20;0.20;;;;;;;3.43;74.41;94190.31;5033832;28;20205;-74
2022/04/18 01:55:36;;;;;;;0.20;0.20;;;;;;;3.47;74.95;94194.00;5033290;28;20200;-74
2022/04/18 01:58:05;;;;;;;0.10;0.10;;;;;;;3.54;74.23;94177.56;5032717;28;20205;-74
2022/04/18 02:00:32;;;;;;;0.20;0.20;;;;;;;3.58;73.94;94178.56;5033527;28;20232;-74
2022/04/18 02:02:59;;;;;;;0.20;0.20;;;;;;;3.59;75.07;94174.78;5033442;28;20255;-74
2022/04/18 02:05:26;;;;;;;0.10;0.10;;;;;;;3.56;72.67;94178.84;5032799;28;20208;-74
2022/04/18 02:07:53;;;;;;;0.10;0.10;;;;;;;3.52;73.87;94175.19;5029500;28;20193;-74
2022/04/18 02:10:20;;;;;;;0.20;0.20;;;;;;;3.40;72.98;94188.25;5031923;28;20216;-74
2022/04/18 02:12:49;;;;;;;0.20;0.20;;;;;;;3.32;73.34;94183.53;5031256;28;20200;-74
2022/04/18 02:15:16;;;;;;;0.20;0.20;;;;;;;3.32;73.75;94172.84;5031772;28;20575;-75
2022/04/18 02:17:43;;;;;;;0.40;0.40;;;;;;;3.18;73.63;94175.47;5031766;28;20547;-73
2022/04/18 02:20:11;;;;;;;0.20;0.20;;;;;;;3.13;73.66;94172.91;5030845;28;20695;-74
2022/04/18 02:22:38;;;;;;;0.25;0.25;;;;;;;3.08;74.10;94169.50;5031698;28;20208;-73
2022/04/18 02:25:07;;;;;;;0.17;0.17;;;;;;;3.12;73.98;94165.16;5031610;28;20612;-74
2022/04/18 02:27:33;;;;;;;0.20;0.20;;;;;;;3.10;73.66;94167.31;5031032;28;20211;-74
2022/04/18 02:30:02;;;;;;;0.28;0.28;;;;;;;3.17;73.51;94163.19;5031232;28;20225;-73
2022/04/18 02:35:13;;;;;;;0.20;0.20;;;;;;;3.16;72.68;94166.16;5014202;28;20197;-76
2022/04/18 02:37:40;;;;;;;0.20;0.20;;;;;;;3.18;73.29;94167.44;5031386;28;20203;-74
2022/04/18 02:40:07;;;;;;;0.20;0.20;;;;;;;3.34;74.76;94169.88;5031211;28;20277;-74
2022/04/18 02:42:34;;;;;;;0.38;0.38;;;;;;;3.46;74.28;94154.94;5045352;28;20228;-74
2022/04/18 02:45:02;;;;;;;0.38;0.38;;;;;;;3.39;73.87;94154.53;5032641;28;20204;-73
2022/04/18 02:47:29;;;;;;;0.20;0.20;;;;;;;3.28;72.84;94153.09;5032126;28;20216;-75
2022/04/18 02:49:56;;;;;;;0.20;0.20;;;;;;;3.10;73.30;94156.63;5032127;28;20208;-73
2022/04/18 02:52:23;;;;;;;0.20;0.20;;;;;;;3.18;74.28;94158.63;5032186;28;20231;-73
2022/04/18 02:54:50;;;;;;;0.25;0.25;;;;;;;3.12;73.76;94165.16;5042237;28;20215;-73
2022/04/18 02:57:17;;;;;;;0.20;0.20;;;;;;;3.06;74.72;94161.75;5035150;28;20212;-72
2022/04/18 02:59:43;;;;;;;0.20;0.20;;;;;;;3.03;76.97;94166.88;5031859;28;20318;-72
2022/04/18 03:02:11;;;;;;;0.20;0.20;;;;;;;2.79;77.71;94157.09;5031968;28;20219;-72
2022/04/18 03:04:39;;;;;;;0.10;0.10;;;;;;;2.56;79.13;94166.00;5032008;28;20223;-72
2022/04/18 03:07:06;;;;;;;0.20;0.20;;;;;;;2.45;79.45;94157.31;5031780;28;20201;-72
2022/04/18 03:09:33;;;;;;;0.20;0.20;;;;;;;2.44;79.48;94174.44;5032036;28;20262;-73
2022/04/18 03:12:02;;;;;;;0.17;0.17;;;;;;;2.36;79.59;94171.59;5031758;28;20204;-74
2022/04/18 03:14:29;;;;;;;0.63;0.52;;;;;;;2.24;79.55;94165.88;5043531;28;20203;-74
2022/04/18 03:16:56;;;;;;;0.73;0.60;;;;;;;2.32;80.44;94162.59;5032676;28;20643;-74
2022/04/18 03:19:25;;;;;;;1.30;0.70;;;;;;;2.33;81.15;94166.81;5031691;28;20254;-74
2022/04/18 03:21:52;;;;;;;0.40;0.40;;;;;;;2.27;80.76;94160.75;5031471;28;20303;-74
2022/04/18 03:24:19;;;;;;;0.65;0.63;;;;;;;2.21;80.75;94167.25;5039031;28;20940;-71
2022/04/18 03:26:46;;;;;;;0.77;0.70;;;;;;;2.16;80.89;94163.84;5031988;28;20210;-70
2022/04/18 03:29:13;;;;;;;0.93;0.60;;;;;;;2.13;81.54;94163.34;5030802;28;20312;-71
2022/04/18 03:31:40;;;;;;;1.13;0.50;;;;;;;2.11;81.69;94162.81;5030929;28;20290;-70
2022/04/18 03:34:07;;;;;;;0.32;0.32;;;;;;;2.04;81.80;94157.06;5031601;28;20226;-71
2022/04/18 03:42:12;;;;;;;0.70;0.50;;;;;;;1.98;81.67;94173.41;5031189;28;20262;-73
2022/04/18 03:44:43;;;;;;;0.43;0.43;;;;;;;1.95;81.67;94152.59;5028730;28;20199;-72
2022/04/18 03:47:11;;;;;;;0.50;0.50;;;;;;;1.90;81.64;94166.81;5024950;28;20232;-73
2022/04/18 03:49:38;;;;;;;0.43;0.43;;;;;;;1.89;81.94;94159.09;5031247;28;20239;-73
2022/04/18 03:52:08;;;;;;;0.70;0.50;;;;;;;1.85;82.11;94158.88;5030794;28;20247;-74
2022/04/18 03:54:35;;;;;;;0.50;0.50;;;;;;;1.91;82.25;94163.09;5031244;28;20227;-73
2022/04/18 03:57:02;;;;;;;0.52;0.52;;;;;;;1.97;82.65;94167.28;5045408;28;20208;-76
2022/04/18 03:59:30;;;;;;;0.65;0.60;;;;;;;1.95;81.65;94161.41;5041608;28;20551;-73
2022/04/18 04:01:57;;;;;;;0.60;0.60;;;;;;;2.03;81.81;94171.47;5030188;28;20224;-72
2022/04/18 04:04:24;;;;;;;0.57;0.52;;;;;;;1.99;82.29;94165.13;5030995;28;20572;-73
2022/04/18 04:06:51;;;;;;;0.75;0.68;;;;;;;1.97;81.53;94167.28;5044148;28;20211;-71
2022/04/18 04:09:19;;;;;;;0.17;0.17;;;;;;;1.98;81.08;94171.53;5030663;28;20204;-73
2022/04/18 04:11:46;;;;;;;0.25;0.25;;;;;;;2.06;81.79;94170.88;5029601;28;20678;-73
2022/04/18 04:14:13;;;;;;;0.20;0.20;;;;;;;2.30;81.99;94167.41;5030719;28;20231;-75
2022/04/18 04:16:40;;;;;;;0.20;0.20;;;;;;;2.45;81.10;94172.56;5030707;28;20211;-74
2022/04/18 04:19:08;;;;;;;0.20;0.20;;;;;;;2.44;80.66;94170.97;5030466;28;20714;-73
2022/04/18 04:21:35;;;;;;;0.30;0.30;;;;;;;2.66;80.79;94168.50;5030592;28;20665;-72
2022/04/18 04:24:02;;;;;;;0.20;0.20;;;;;;;2.73;81.06;94179.63;5036057;28;20318;-72
2022/04/18 04:26:31;;;;;;;0.30;0.30;;;;;;;2.72;79.92;94167.38;5031631;28;20671;-73
2022/04/18 04:28:57;;;;;;;0.10;0.10;;;;;;;2.81;80.02;94173.66;5029505;28;20600;-73
2022/04/18 04:31:25;;;;;;;2.92;0.30;;;;;;;2.82;79.53;94172.56;5030046;28;20262;-73
2022/04/18 04:33:51;;;;;;;0.20;0.20;;;;;;;2.90;79.22;94170.31;5029979;28;20688;-72
2022/04/18 04:36:18;;;;;;;0.22;0.22;;;;;;;3.01;79.35;94185.09;5047814;28;20613;-73
2022/04/18 04:38:45;;;;;;;0.20;0.20;;;;;;;3.08;77.28;94174.84;5050675;28;20306;-72
2022/04/18 04:41:14;;;;;;;0.20;0.20;;;;;;;3.01;77.12;94175.19;5050372;28;20234;-73
2022/04/18 04:43:43;;;;;;;0.20;0.20;;;;;;;3.16;77.02;94166.16;5049964;28;20596;-73
2022/04/18 04:46:09;;;;;;;0.20;0.20;;;;;;;3.28;77.14;94179.09;5050274;28;20646;-73
2022/04/18 04:48:36;;;;;;;0.20;0.20;;;;;;;3.29;76.71;94176.09;5050071;28;20203;-73
2022/04/18 04:51:04;;;;;;;0.45;0.45;;;;;;;3.31;76.61;94173.94;5050260;28;20314;-74
2022/04/18 04:53:31;;;;;;;0.80;0.80;;;;;;;3.41;76.92;94168.44;5050247;28;20211;-72
2022/04/18 04:55:58;;;;;;;0.20;0.20;;;;;;;3.28;76.19;94174.50;5031449;28;20578;-73
2022/04/18 04:58:27;;;;;;;0.15;0.15;;;;;;;3.30;75.31;94172.34;5030373;28;20204;-73
2022/04/18 05:00:55;;;;;;;0.52;0.52;;;;;;;3.22;76.71;94181.03;5029911;28;20319;-73
2022/04/18 05:03:22;;;;;;;0.32;0.32;;;;;;;3.14;77.11;94173.69;5029856;28;20214;-73
2022/04/18 05:05:49;;;;;;;0.35;0.35;;;;;;;3.24;75.69;94184.22;5029920;28;20208;-72
2022/04/18 05:08:16;;;;;;;0.20;0.20;;;;;;;3.35;75.65;94180.28;5043560;28;20216;-72
2022/04/18 05:10:42;;;;;;;0.20;0.20;;;;;;;3.42;75.22;94175.34;5030172;28;20209;-73
2022/04/18 05:13:09;;;;;;;0.20;0.20;;;;;;;3.64;74.29;94173.91;5034168;28;20223;-73
2022/04/18 05:15:37;;;;;;;0.45;0.45;;;;;;;3.57;74.93;94172.41;5033771;28;20204;-74
2022/04/18 05:18:06;;;;;;;0.20;0.20;;;;;;;3.54;75.61;94170.34;5048163;28;20318;-73
2022/04/18 05:20:33;;;;;;;0.20;0.20;;;;;;;3.70;74.72;94173.50;5053705;28;20231;-72
2022/04/18 05:22:59;;;;;;;0.20;0.20;;;;;;;3.77;74.06;94181.97;5051578;28;20332;-73
2022/04/18 05:25:26;;;;;;;1.92;1.77;;;;;;;4.02;73.27;94182.59;5041988;28;20247;-73
2022/04/18 05:27:53;;;;;;;0.60;0.50;;;;;;;4.24;72.43;94174.63;5048998;28;20641;-73
2022/04/18 05:30:20;;;;;;;0.40;0.40;;;;;;;4.51;71.91;94177.28;5052258;28;20257;-74
2022/04/18 05:32:47;;;;;;;0.28;0.28;;;;;;;4.57;69.27;94177.97;5052953;28;20678;-73
2022/04/18 05:35:16;;;;;;;0.20;0.20;;;;;;;4.59;67.54;94173.13;5052702;28;20208;-73
2022/04/18 05:37:43;;;;;;;0.20;0.20;;;;;;;4.56;67.72;94176.38;5037553;28;20216;-73
2022/04/18 05:40:11;;;;;;;0.20;0.20;;;;;;;4.67;68.80;94172.41;5033250;28;20200;-73
2022/04/18 05:42:37;;;;;;;0.20;0.20;;;;;;;4.63;68.65;94182.16;5049181;28;20331;-72
2022/04/18 05:45:07;;;;;;;0.40;0.40;;;;;;;4.42;68.94;94180.97;5051687;28;20204;-73
2022/04/18 05:47:34;;;;;;;0.20;0.20;;;;;;;4.28;69.19;94181.78;5038160;28;20201;-74
2022/04/18 05:50:01;;;;;;;0.30;0.30;;;;;;;4.30;69.82;94184.16;5031312;28;20641;-73
2022/04/18 05:52:29;;;;;;;0.30;0.30;;;;;;;4.50;68.97;94189.13;5030972;28;20404;-73
2022/04/18 05:54:56;;;;;;;0.45;0.45;;;;;;;4.23;69.49;94184.59;5030842;28;20210;-72
2022/04/18 05:57:23;;;;;;;0.20;0.20;;;;;;;3.87;70.10;94197.06;5031096;28;20539;-72
2022/04/18 05:59:50;;;;;;;0.20;0.20;;;;;;;3.81;70.83;94187.53;5030097;28;20196;-71
2022/04/18 06:02:17;;;;;;;3.10;0.40;;;;;;;3.78;70.95;94196.16;5030621;28;20836;-74
2022/04/18 06:04:44;;;;;;;0.65;0.65;;;;;;;3.98;70.27;94198.44;5028931;28;20220;-73
2022/04/18 06:07:10;;;;;;;0.55;0.55;;;;;;;4.01;70.25;94197.88;5043479;28;20211;-73
2022/04/18 06:09:39;;;;;;;0.30;0.30;;;;;;;4.37;70.32;94197.19;5031041;28;20247;-73
2022/04/18 06:12:08;;;;;;;0.10;0.10;;;;;;;4.50;70.01;94193.69;5030194;28;20651;-73
2022/04/18 06:14:35;;;;;;;0.28;0.28;;;;;;;4.84;69.74;94183.28;5028112;28;20197;-73
2022/04/18 06:17:02;;;;;;;0.47;0.47;;;;;;;4.81;69.89;94194.63;5030926;28;20648;-72
2022/04/18 06:19:28;;;;;;;0.20;0.20;;;;;;;5.11;67.46;94190.47;5028007;28;20193;-73
2022/04/18 06:21:55;;;;;;;0.10;0.10;;;;;;;5.55;65.76;94194.25;5029340;28;20226;-73
2022/04/18 06:24:22;;;;;;;0.20;0.20;;;;;;;5.95;64.56;94192.47;5030245;28;20200;-74
2022/04/18 06:26:50;;;;;;;0.30;0.30;;;;;;;5.61;64.68;94201.06;5030448;28;20528;-70
2022/04/18 06:29:17;;;;;;;0.20;0.20;;;;;;;5.90;63.82;94189.88;5029424;28;20201;-73
2022/04/18 06:31:44;;;;;;;0.40;0.40;;;;;;;5.71;64.38;94192.78;5027605;28;20623;-72
2022/04/18 06:34:11;;;;;;;0.20;0.20;;;;;;;6.59;63.46;94190.16;5029460;28;20244;-73
2022/04/18 06:36:37;;;;;;;0.20;0.20;;;;;;;6.29;62.01;94195.28;5029353;28;20207;-73
2022/04/18 06:39:04;;;;;;;0.32;0.32;;;;;;;5.50;64.32;94200.53;5030874;28;20196;-72
2022/04/18 06:41:31;;;;;;;2.00;1.90;;;;;;;5.02;66.64;94199.53;5038082;28;20235;-73
2022/04/18 06:43:59;;;;;;;0.30;0.30;;;;;;;5.23;63.88;94197.97;5049924;28;20247;-72
2022/04/18 06:46:27;;;;;;;0.20;0.20;;;;;;;4.92;64.75;94205.94;5028823;28;20223;-71
2022/04/18 06:48:54;;;;;;;0.30;0.30;;;;;;;5.58;64.96;94197.13;5028648;28;20208;-71
2022/04/18 06:51:21;;;;;;;0.45;0.45;;;;;;;5.20;64.78;94206.63;5022055;28;20734;-70
2022/04/18 06:53:48;;;;;;;0.50;0.50;;;;;;;5.26;64.63;94205.44;5015143;28;20295;-72
2022/04/18 06:59:00;;;;;;;0.40;0.40;;;;;;;5.16;65.62;94211.84;5048560;28;20213;-73
2022/04/18 07:01:27;;;;;;;0.22;0.22;;;;;;;5.54;65.16;94203.41;5050170;28;20243;-73
2022/04/18 07:03:54;;;;;;;0.32;0.32;;;;;;;5.82;63.50;94212.13;5018114;28;20208;-73
2022/04/18 07:06:21;;;;;;;0.30;0.30;;;;;;;5.94;64.96;94210.47;5029320;28;20663;-75
2022/04/18 07:08:48;;;;;;;0.25;0.25;;;;;;;6.12;64.44;94200.63;5030695;28;20208;-73
2022/04/18 07:11:14;;;;;;;0.30;0.30;;;;;;;5.41;64.10;94199.69;5029756;28;20274;-72
2022/04/18 07:13:42;;;;;;;0.30;0.30;;;;;;;5.26;64.93;94208.91;5030467;28;20247;-72
2022/04/18 07:16:10;;;;;;;2.30;0.82;;;;;;;5.22;65.55;94204.44;5029993;28;20697;-73
2022/04/18 07:18:37;;;;;;;1.77;0.52;;;;;;;5.37;65.42;94204.09;5030382;28;20235;-73
2022/04/18 07:21:04;;;;;;;0.40;0.40;;;;;;;5.78;64.51;94205.75;5029452;28;20259;-71
2022/04/18 07:23:31;;;;;;;0.30;0.30;;;;;;;5.73;64.49;94204.03;5030754;28;20239;-75
2022/04/18 07:25:58;;;;;;;0.40;0.40;;;;;;;5.52;65.36;94205.59;5037068;28;20626;-73
2022/04/18 07:28:25;;;;;;;0.20;0.20;;;;;;;5.35;66.02;94200.91;5036209;28;20270;-74
2022/04/18 07:30:52;;;;;;;1.10;0.55;;;;;;;4.83;68.09;94208.53;5035780;28;20691;-73
2022/04/18 07:33:20;;;;;;;0.20;0.20;;;;;;;4.73;68.01;94208.75;5029851;28;20208;-72
2022/04/18 07:35:47;;;;;;;0.25;0.25;;;;;;;4.63;69.33;94217.03;5029404;28;20200;-72
2022/04/18 07:41:04;;;;;;;0.20;0.20;;;;;;;4.43;68.94;94214.75;5029502;28;20227;-74
2022/04/18 07:43:34;;;;;;;0.40;0.40;;;;;;;4.37;70.33;94215.97;5029459;28;20302;-69
2022/04/18 07:46:01;;;;;;;0.22;0.22;;;;;;;4.22;70.28;94223.19;5029269;28;20207;-75
2022/04/18 07:48:30;;;;;;;1.98;0.88;;;;;;;4.23;70.89;94214.06;5029370;28;20709;-73
2022/04/18 07:53:41;;;;;;;0.30;0.30;;;;;;;4.49;69.90;94218.94;5029048;28;20207;-72
2022/04/18 07:56:08;;;;;;;0.63;0.63;;;;;;;4.42;69.77;94231.94;5037353;28;20214;-75
2022/04/18 07:58:35;;;;;;;0.20;0.20;;;;;;;4.43;70.13;94220.09;5049061;28;20662;-77
2022/04/18 08:01:02;;;;;;;0.20;0.20;;;;;;;4.43;69.91;94230.84;5049175;28;20628;-71
2022/04/18 08:03:34;;;;;;;0.52;0.30;;;;;;;4.40;71.46;94228.75;5020583;28;20209;-67
2022/04/18 08:06:01;;;;;;;0.40;0.40;;;;;;;4.00;72.46;94227.63;5029011;28;20311;-72
2022/04/18 08:08:28;;;;;;;0.25;0.20;;;;;;;4.18;71.95;94224.88;5029438;28;20200;-70
2022/04/18 08:10:54;;;;;;;0.10;0.10;;;;;;;4.06;71.66;94216.53;5028934;28;20215;-73
2022/04/18 08:13:21;;;;;;;0.25;0.25;;;;;;;4.10;72.43;94225.56;5031525;28;20212;-74
2022/04/18 08:15:48;;;;;;;0.15;0.15;;;;;;;4.11;72.06;94221.78;5048417;28;20207;-73
2022/04/18 08:18:15;;;;;;;0.30;0.30;;;;;;;4.22;71.01;94236.59;5032146;28;20196;-73
2022/04/18 08:20:44;;;;;;;0.20;0.20;;;;;;;4.13;70.59;94227.66;5030513;28;20204;-72
2022/04/18 08:23:11;;;;;;;0.30;0.30;;;;;;;4.06;71.71;94221.91;5028570;28;20223;-71
2022/04/18 08:25:38;;;;;;;0.30;0.30;;;;;;;3.94;72.49;94224.28;5035784;28;20208;-71
2022/04/18 08:28:05;;;;;;;0.20;0.20;;;;;;;4.04;71.41;94218.72;5028368;28;20726;-75
2022/04/18 08:30:32;;;;;;;0.20;0.20;;;;;;;3.84;72.29;94224.44;5028599;28;20234;-72
2022/04/18 08:32:59;;;;;;;1.80;0.75;;;;;;;4.05;72.54;94222.97;5029132;28;20216;-72
2022/04/18 08:35:27;;;;;;;0.30;0.30;;;;;;;4.20;70.96;94228.06;5028725;28;20215;-72
2022/04/18 08:37:55;;;;;;;0.20;0.20;;;;;;;4.14;71.55;94229.22;5028490;28;20282;-70
2022/04/18 08:40:22;;;;;;;0.20;0.20;;;;;;;4.44;70.66;94227.06;5028422;28;20208;-71
2022/04/18 08:42:54;;;;;;;0.20;0.20;;;;;;;4.41;70.06;94227.66;5033799;28;20238;-72
2022/04/18 08:45:24;;;;;;;0.32;0.32;;;;;;;4.25;69.20;94230.63;5048812;28;20290;-72
2022/04/18 08:53:26;;;;;;;0.20;0.20;;;;;;;3.97;72.10;94234.38;5052797;28;20210;-72
2022/04/18 08:55:54;;;;;;;0.20;0.20;;;;;;;3.79;71.98;94232.56;5037704;28;20231;-73
2022/04/18 08:58:22;;;;;;;0.20;0.20;;;;;;;3.73;72.26;94244.44;5030496;28;20212;-71
2022/04/18 09:00:49;;;;;;;0.30;0.30;;;;;;;3.81;72.15;94231.19;5038046;28;20227;-71
2022/04/18 09:03:16;;;;;;;0.63;0.63;;;;;;;3.85;71.83;94226.03;5026057;28;20228;-72
2022/04/18 09:05:43;;;;;;;0.20;0.20;;;;;;;3.79;71.55;94232.56;5032511;28;20250;-72
2022/04/18 09:08:11;;;;;;;0.20;0.20;;;;;;;4.08;70.73;94235.81;5032382;28;20204;-72
2022/04/18 09:10:41;;;;;;;0.35;0.35;;;;;;;4.27;70.58;94223.09;5032644;28;20204;-73
2022/04/18 09:13:10;;;;;;;0.20;0.20;;;;;;;4.32;69.34;94232.13;5031740;28;20212;-73
2022/04/18 09:15:38;;;;;;;0.20;0.20;;;;;;;4.59;69.82;94224.06;5032161;28;20216;-72
2022/04/18 09:18:13;;;;;;;0.30;0.30;;;;;;;4.88;66.91;94221.84;5031985;28;20671;-72
2022/04/18 09:20:44;;;;;;;0.30;0.30;;;;;;;4.78;67.19;94227.44;5031733;28;20359;-71
2022/04/18 09:23:23;;;;;;;0.20;0.20;;;;;;;4.69;66.90;94215.81;5031606;28;20223;-73
2022/04/18 09:25:57;;;;;;;0.13;0.13;;;;;;;4.91;65.51;94215.88;5031215;28;20211;-74
2022/04/18 09:28:26;;;;;;;0.57;0.40;;;;;;;5.35;65.61;94204.38;5045032;28;20227;-72
2022/04/18 09:31:01;;;;;;;0.20;0.20;;;;;;;6.07;63.57;94214.19;5032038;28;20659;-73
2022/04/18 09:33:32;;;;;;;0.10;0.10;;;;;;;6.26;63.23;94206.69;5019289;28;20208;-73
2022/04/18 09:36:10;;;;;;;0.40;0.40;;;;;;;5.82;63.64;94201.38;5031632;28;20663;-73
2022/04/18 09:38:39;;;;;;;0.20;0.20;;;;;;;5.72;64.23;94203.22;5031694;28;20681;-73
2022/04/18 09:41:08;;;;;;;0.20;0.20;;;;;;;6.34;64.47;94203.22;5048601;28;20281;-73
2022/04/18 09:43:43;;;;;;;0.68;0.50;;;;;;;6.41;62.74;94208.16;5051250;28;20342;-73
2022/04/18 09:46:10;;;;;;;0.20;0.20;;;;;;;5.97;62.39;94214.44;5042645;28;20200;-73
2022/04/18 09:48:37;;;;;;;0.20;0.20;;;;;;;6.69;60.65;94211.41;5030661;28;20666;-73
2022/04/18 09:51:09;;;;;;;0.20;0.20;;;;;;;6.17;61.54;94203.16;5032618;28;20211;-72
2022/04/18 09:53:38;;;;;;;0.20;0.20;;;;;;;6.81;61.51;94200.03;5030717;28;20212;-72
2022/04/18 09:56:07;;;;;;;0.60;0.60;;;;;;;6.88;61.25;94195.75;5033561;28;20240;-73
2022/04/18 09:58:36;;;;;;;0.20;0.20;;;;;;;6.73;58.75;94193.50;5028779;28;20204;-74
2022/04/18 10:01:06;;;;;;;0.85;0.73;;;;;;;6.54;59.40;94190.31;5030371;28;20224;-74
2022/04/18 10:03:34;;;;;;;0.17;0.17;;;;;;;6.08;60.60;94186.19;5027961;28;20228;-72
2022/04/18 10:06:02;;;;;;;1.55;0.47;;;;;;;6.54;60.48;94190.31;5030984;28;20267;-74
2022/04/18 10:08:29;;;;;;;0.30;0.30;;;;;;;6.83;60.59;94187.84;5027170;28;20305;-74
2022/04/18 10:10:58;;;;;;;0.20;0.20;;;;;;;7.06;59.18;94186.59;5031447;28;20212;-73
2022/04/18 10:13:28;;;;;;;0.20;0.20;;;;;;;7.07;59.04;94182.81;5031070;28;20687;-73
2022/04/18 10:15:58;;;;;;;0.20;0.20;;;;;;;6.49;59.33;94193.13;5030889;28;20212;-72
2022/04/18 10:18:25;;;;;;;0.20;0.20;;;;;;;6.77;60.32;94181.81;5031887;28;20212;-73
2022/04/18 10:21:14;;;;;;;0.20;0.20;;;;;;;6.53;60.99;94186.03;5030934;28;20781;-72
2022/04/18 10:24:14;;;;;;;0.20;0.20;;;;;;;6.80;59.58;94182.28;5033051;28;20215;-72
2022/04/18 10:27:17;;;;;;;0.30;0.30;;;;;;;6.74;59.61;94184.34;5031076;28;20228;-73
2022/04/18 10:29:50;;;;;;;0.43;0.43;;;;;;;7.28;58.85;94185.66;5029907;28;20227;-72
2022/04/18 10:32:22;;;;;;;0.52;0.50;;;;;;;6.83;57.71;94176.28;5028448;28;20211;-72
2022/04/18 10:34:50;;;;;;;0.20;0.20;;;;;;;6.68;59.24;94174.84;5027899;28;20203;-73
2022/04/18 10:37:17;;;;;;;0.30;0.30;;;;;;;6.76;57.96;94182.13;5030386;28;20201;-72
2022/04/18 10:39:47;;;;;;;0.20;0.20;;;;;;;7.00;57.34;94177.09;5029843;28;20215;-73
2022/04/18 10:42:21;;;;;;;0.20;0.20;;;;;;;7.10;56.68;94171.41;5030306;28;20238;-73
2022/04/18 10:45:06;;;;;;;0.45;0.45;;;;;;;7.57;57.71;94162.63;5029360;28;20195;-74
2022/04/18 10:48:08;;;;;;;0.20;0.20;;;;;;;7.55;59.01;94165.66;5030748;28;20236;-73
2022/04/18 10:50:37;;;;;;;0.50;0.50;;;;;;;7.41;58.38;94165.03;5027820;28;20579;-74
2022/04/18 10:53:34;;;;;;;3.53;0.57;;;;;;;7.44;58.81;94165.19;5030675;28;20219;-72
2022/04/18 10:56:12;;;;;;;0.68;0.63;;;;;;;7.50;59.11;94157.75;5028713;28;20281;-72
2022/04/18 10:58:46;;;;;;;0.40;0.40;;;;;;;7.63;58.63;94156.78;5027826;28;20235;-73
2022/04/18 11:01:18;;;;;;;0.75;0.75;;;;;;;7.45;59.13;94155.22;5028981;28;20192;-72
2022/04/18 11:03:48;;;;;;;1.88;0.50;;;;;;;7.31;59.34;94149.19;5029710;28;20339;-73
2022/04/18 11:06:44;;;;;;;0.30;0.30;;;;;;;6.80;59.99;94166.94;5029333;28;20713;-74
2022/04/18 11:09:13;;;;;;;0.20;0.20;;;;;;;6.43;59.15;94163.69;5028579;28;20226;-73
2022/04/18 11:11:45;;;;;;;0.20;0.20;;;;;;;6.22;59.36;94165.38;5029304;28;20201;-70
2022/04/18 11:14:18;;;;;;;0.20;0.20;;;;;;;6.10;58.96;94159.78;5029835;28;20200;-72
2022/04/18 11:16:52;;;;;;;2.75;0.65;;;;;;;5.90;60.45;94160.31;5029213;28;20659;-73
2022/04/18 11:19:22;;;;;;;0.28;0.28;;;;;;;6.18;60.46;94148.25;5029649;28;20259;-73
2022/04/18 11:22:22;;;;;;;0.15;0.15;;;;;;;6.97;57.87;94140.00;5030149;28;20204;-72
2022/04/18 11:25:00;;;;;;;0.20;0.20;;;;;;;6.96;56.94;94146.53;5042959;28;20659;-71
2022/04/18 11:27:37;;;;;;;0.20;0.20;;;;;;;6.23;58.11;94153.50;5029900;28;20228;-71
2022/04/18 11:30:11;;;;;;;0.20;0.20;;;;;;;6.33;58.97;94147.03;5016204;28;20200;-73
2022/04/18 11:32:41;;;;;;;0.30;0.30;;;;;;;6.17;58.33;94156.63;5029463;28;20197;-69
2022/04/18 11:35:10;;;;;;;0.32;0.32;;;;;;;6.37;59.70;94151.50;5030317;28;20215;-72
2022/04/18 11:37:39;;;;;;;0.10;0.10;;;;;;;6.69;58.46;94150.31;5043854;28;20214;-74
2022/04/18 11:40:08;;;;;;;0.20;0.20;;;;;;;6.93;57.28;94149.84;5029975;28;20233;-73
2022/04/18 11:42:35;;;;;;;0.20;0.20;;;;;;;6.97;55.34;94137.31;5029210;28;20240;-73
2022/04/18 11:45:06;;;;;;;0.30;0.30;;;;;;;6.93;56.22;94140.97;5030935;28;20215;-74
2022/04/18 11:47:38;;;;;;;0.20;0.20;;;;;;;6.70;56.98;94146.47;5029270;28;20283;-73
2022/04/18 11:50:07;;;;;;;0.45;0.45;;;;;;;6.56;57.76;94139.69;5030112;28;20275;-72
2022/04/18 11:52:35;;;;;;;0.45;0.45;;;;;;;6.91;57.28;94141.28;5030802;28;20547;-73
2022/04/18 11:55:04;;;;;;;0.20;0.20;;;;;;;6.62;56.63;94139.19;5030162;28;20274;-70
2022/04/18 11:57:33;;;;;;;0.63;0.63;;;;;;;6.63;57.67;94142.69;5028596;28;20199;-73
2022/04/18 12:00:01;;;;;;;1.75;0.40;;;;;;;6.84;57.65;94142.84;5024344;28;20243;-72
2022/04/18 12:08:01;;;;;;;0.20;0.20;;;;;;;6.58;58.47;94142.81;4994817;28;20216;-72
2022/04/18 12:10:31;;;;;;;0.30;0.30;;;;;;;6.46;58.56;94130.00;5026265;28;20209;-73
2022/04/18 12:12:59;;;;;;;0.47;0.47;;;;;;;6.65;58.92;94135.09;5027267;28;20388;-72
2022/04/18 12:15:29;;;;;;;0.40;0.40;;;;;;;7.21;58.04;94122.59;5028061;28;20207;-74
2022/04/18 12:17:57;;;;;;;0.73;0.65;;;;;;;6.85;58.27;94125.59;5029080;28;20208;-74
2022/04/18 12:20:27;;;;;;;0.22;0.22;;;;;;;6.56;59.02;94118.16;5029815;28;20235;-75
2022/04/18 12:22:58;;;;;;;0.22;0.22;;;;;;;6.84;58.11;94114.03;5027387;28;20232;-74